sensor_id;sensor_type;location;lat;lon;timestamp;P1;durP1;ratioP1;P2;durP2;ratioP2
59770;SDS011;45649;53.014;6.600;2023-01-04T00:01:58;8.67;;;4.20;;
59770;SDS011;45649;53.014;6.600;2023-01-04T00:04:24;8.50;;;3.53;;
59770;SDS011;45649;53.014;6.600;2023-01-04T00:06:50;6.80;;;3.60;;
59770;SDS011;45649;53.014;6.600;2023-01-04T00:09:16;5.13;;;3.33;;
59770;SDS011;45649;53.014;6.600;2023-01-04T00:11:42;5.97;;;3.17;;
59770;SDS011;45649;53.014;6.600;2023-01-04T00:14:09;6.33;;;3.60;;
59770;SDS011;45649;53.014;6.600;2023-01-04T00:16:35;7.60;;;3.60;;
59770;SDS011;45649;53.014;6.600;2023-01-04T00:19:01;8.93;;;4.23;;
59770;SDS011;45649;53.014;6.600;2023-01-04T00:21:28;8.07;;;3.20;;
59770;SDS011;45649;53.014;6.600;2023-01-04T00:23:58;11.03;;;3.77;;
59770;SDS011;45649;53.014;6.600;2023-01-04T00:26:26;6.97;;;3.20;;
59770;SDS011;45649;53.014;6.600;2023-01-04T00:28:53;8.73;;;4.20;;
59770;SDS011;45649;53.014;6.600;2023-01-04T00:31:19;9.10;;;4.27;;
59770;SDS011;45649;53.014;6.600;2023-01-04T00:33:45;7.87;;;3.30;;
59770;SDS011;45649;53.014;6.600;2023-01-04T00:36:12;8.37;;;3.40;;
59770;SDS011;45649;53.014;6.600;2023-01-04T00:38:39;6.87;;;3.60;;
59770;SDS011;45649;53.014;6.600;2023-01-04T00:41:05;7.80;;;4.00;;
59770;SDS011;45649;53.014;6.600;2023-01-04T00:43:32;5.73;;;3.70;;
59770;SDS011;45649;53.014;6.600;2023-01-04T00:45:58;8.07;;;3.83;;
59770;SDS011;45649;53.014;6.600;2023-01-04T00:48:25;6.40;;;3.60;;
59770;SDS011;45649;53.014;6.600;2023-01-04T00:50:51;5.40;;;3.67;;
59770;SDS011;45649;53.014;6.600;2023-01-04T00:53:17;7.90;;;4.33;;
59770;SDS011;45649;53.014;6.600;2023-01-04T00:55:44;6.63;;;3.50;;
59770;SDS011;45649;53.014;6.600;2023-01-04T00:58:10;7.53;;;3.80;;
59770;SDS011;45649;53.014;6.600;2023-01-04T01:00:36;7.23;;;3.73;;
59770;SDS011;45649;53.014;6.600;2023-01-04T01:03:03;8.63;;;4.17;;
59770;SDS011;45649;53.014;6.600;2023-01-04T01:05:29;5.00;;;3.47;;
59770;SDS011;45649;53.014;6.600;2023-01-04T01:07:55;10.13;;;3.77;;
59770;SDS011;45649;53.014;6.600;2023-01-04T01:10:21;9.37;;;4.20;;
59770;SDS011;45649;53.014;6.600;2023-01-04T01:12:48;7.23;;;3.70;;
59770;SDS011;45649;53.014;6.600;2023-01-04T01:15:14;6.17;;;3.57;;
59770;SDS011;45649;53.014;6.600;2023-01-04T01:17:40;5.37;;;3.47;;
59770;SDS011;45649;53.014;6.600;2023-01-04T01:20:07;6.57;;;3.93;;
59770;SDS011;45649;53.014;6.600;2023-01-04T01:22:33;6.87;;;3.60;;
59770;SDS011;45649;53.014;6.600;2023-01-04T01:25:00;4.87;;;3.17;;
59770;SDS011;45649;53.014;6.600;2023-01-04T01:27:26;6.77;;;3.60;;
59770;SDS011;45649;53.014;6.600;2023-01-04T01:29:53;6.17;;;3.70;;
59770;SDS011;45649;53.014;6.600;2023-01-04T01:32:19;6.13;;;3.70;;
59770;SDS011;45649;53.014;6.600;2023-01-04T01:34:46;4.50;;;3.37;;
59770;SDS011;45649;53.014;6.600;2023-01-04T01:37:12;6.50;;;3.30;;
59770;SDS011;45649;53.014;6.600;2023-01-04T01:39:38;4.30;;;3.30;;
59770;SDS011;45649;53.014;6.600;2023-01-04T01:42:04;5.43;;;3.57;;
59770;SDS011;45649;53.014;6.600;2023-01-04T01:47:13;6.30;;;3.50;;
59770;SDS011;45649;53.014;6.600;2023-01-04T01:49:39;4.00;;;3.20;;
59770;SDS011;45649;53.014;6.600;2023-01-04T01:52:11;4.70;;;3.00;;
59770;SDS011;45649;53.014;6.600;2023-01-04T01:54:51;6.57;;;3.40;;
59770;SDS011;45649;53.014;6.600;2023-01-04T01:57:18;6.67;;;3.50;;
59770;SDS011;45649;53.014;6.600;2023-01-04T01:59:47;5.70;;;3.50;;
59770;SDS011;45649;53.014;6.600;2023-01-04T02:02:15;5.63;;;3.03;;
59770;SDS011;45649;53.014;6.600;2023-01-04T02:04:42;3.90;;;3.30;;
59770;SDS011;45649;53.014;6.600;2023-01-04T02:07:09;5.67;;;3.40;;
59770;SDS011;45649;53.014;6.600;2023-01-04T02:09:37;5.20;;;3.23;;
59770;SDS011;45649;53.014;6.600;2023-01-04T02:12:04;7.50;;;3.60;;
59770;SDS011;45649;53.014;6.600;2023-01-04T02:14:30;5.67;;;3.30;;
59770;SDS011;45649;53.014;6.600;2023-01-04T02:27:19;5.00;;;2.90;;
59770;SDS011;45649;53.014;6.600;2023-01-04T02:35:00;4.77;;;2.90;;
59770;SDS011;45649;53.014;6.600;2023-01-04T02:37:38;3.87;;;2.90;;
59770;SDS011;45649;53.014;6.600;2023-01-04T02:42:37;2.97;;;2.63;;
59770;SDS011;45649;53.014;6.600;2023-01-04T02:45:26;3.87;;;2.40;;
59770;SDS011;45649;53.014;6.600;2023-01-04T02:47:54;3.50;;;2.30;;
59770;SDS011;45649;53.014;6.600;2023-01-04T02:50:59;2.43;;;2.10;;
59770;SDS011;45649;53.014;6.600;2023-01-04T03:01:16;2.53;;;2.27;;
59770;SDS011;45649;53.014;6.600;2023-01-04T03:04:16;2.37;;;2.20;;
59770;SDS011;45649;53.014;6.600;2023-01-04T03:07:09;2.63;;;2.23;;
59770;SDS011;45649;53.014;6.600;2023-01-04T03:09:37;2.70;;;1.97;;
59770;SDS011;45649;53.014;6.600;2023-01-04T03:12:06;2.43;;;2.07;;
59770;SDS011;45649;53.014;6.600;2023-01-04T03:14:54;2.60;;;2.40;;
59770;SDS011;45649;53.014;6.600;2023-01-04T03:17:25;2.90;;;2.13;;
59770;SDS011;45649;53.014;6.600;2023-01-04T03:19:52;2.47;;;2.20;;
59770;SDS011;45649;53.014;6.600;2023-01-04T03:22:24;2.87;;;2.33;;
59770;SDS011;45649;53.014;6.600;2023-01-04T03:25:11;1.80;;;1.70;;
59770;SDS011;45649;53.014;6.600;2023-01-04T03:27:56;2.73;;;2.07;;
59770;SDS011;45649;53.014;6.600;2023-01-04T03:30:54;2.50;;;2.00;;
59770;SDS011;45649;53.014;6.600;2023-01-04T03:33:40;1.93;;;1.60;;
59770;SDS011;45649;53.014;6.600;2023-01-04T03:36:42;1.90;;;1.80;;
59770;SDS011;45649;53.014;6.600;2023-01-04T03:42:21;2.00;;;1.90;;
59770;SDS011;45649;53.014;6.600;2023-01-04T03:45:15;2.30;;;2.00;;
59770;SDS011;45649;53.014;6.600;2023-01-04T03:56:20;2.60;;;2.37;;
59770;SDS011;45649;53.014;6.600;2023-01-04T03:58:48;2.47;;;2.20;;
59770;SDS011;45649;53.014;6.600;2023-01-04T04:01:15;2.23;;;2.03;;
59770;SDS011;45649;53.014;6.600;2023-01-04T04:03:42;3.23;;;2.30;;
59770;SDS011;45649;53.014;6.600;2023-01-04T04:06:27;2.50;;;2.30;;
59770;SDS011;45649;53.014;6.600;2023-01-04T04:09:12;2.43;;;2.27;;
59770;SDS011;45649;53.014;6.600;2023-01-04T04:11:38;2.73;;;2.23;;
59770;SDS011;45649;53.014;6.600;2023-01-04T04:14:04;2.40;;;2.20;;
59770;SDS011;45649;53.014;6.600;2023-01-04T04:16:31;2.38;;;2.17;;
59770;SDS011;45649;53.014;6.600;2023-01-04T04:18:57;2.33;;;2.23;;
59770;SDS011;45649;53.014;6.600;2023-01-04T04:21:23;2.37;;;2.27;;
59770;SDS011;45649;53.014;6.600;2023-01-04T04:23:49;2.77;;;2.57;;
59770;SDS011;45649;53.014;6.600;2023-01-04T04:26:15;2.90;;;2.70;;
59770;SDS011;45649;53.014;6.600;2023-01-04T04:28:42;3.03;;;2.93;;
59770;SDS011;45649;53.014;6.600;2023-01-04T04:31:09;2.93;;;2.70;;
59770;SDS011;45649;53.014;6.600;2023-01-04T04:33:35;4.47;;;2.80;;
59770;SDS011;45649;53.014;6.600;2023-01-04T04:36:02;2.77;;;2.57;;
59770;SDS011;45649;53.014;6.600;2023-01-04T04:38:28;2.80;;;2.70;;
59770;SDS011;45649;53.014;6.600;2023-01-04T04:40:54;2.93;;;2.80;;
59770;SDS011;45649;53.014;6.600;2023-01-04T04:43:39;3.37;;;3.07;;
59770;SDS011;45649;53.014;6.600;2023-01-04T04:46:05;3.43;;;3.13;;
59770;SDS011;45649;53.014;6.600;2023-01-04T04:48:31;3.13;;;2.90;;
59770;SDS011;45649;53.014;6.600;2023-01-04T04:50:57;3.20;;;3.00;;
59770;SDS011;45649;53.014;6.600;2023-01-04T04:53:23;3.10;;;3.00;;
59770;SDS011;45649;53.014;6.600;2023-01-04T04:55:50;3.17;;;2.97;;
59770;SDS011;45649;53.014;6.600;2023-01-04T04:58:16;3.10;;;3.00;;
59770;SDS011;45649;53.014;6.600;2023-01-04T05:00:42;3.40;;;3.20;;
59770;SDS011;45649;53.014;6.600;2023-01-04T05:03:09;2.90;;;2.77;;
59770;SDS011;45649;53.014;6.600;2023-01-04T05:05:35;3.40;;;3.10;;
59770;SDS011;45649;53.014;6.600;2023-01-04T05:08:01;3.33;;;3.17;;
59770;SDS011;45649;53.014;6.600;2023-01-04T05:10:27;3.27;;;3.07;;
59770;SDS011;45649;53.014;6.600;2023-01-04T05:12:53;3.80;;;3.50;;
59770;SDS011;45649;53.014;6.600;2023-01-04T05:15:33;3.80;;;3.60;;
59770;SDS011;45649;53.014;6.600;2023-01-04T05:17:59;3.63;;;3.40;;
59770;SDS011;45649;53.014;6.600;2023-01-04T05:20:26;4.23;;;3.83;;
59770;SDS011;45649;53.014;6.600;2023-01-04T05:22:52;3.77;;;3.57;;
59770;SDS011;45649;53.014;6.600;2023-01-04T05:25:18;3.93;;;3.73;;
59770;SDS011;45649;53.014;6.600;2023-01-04T05:27:45;4.37;;;4.07;;
59770;SDS011;45649;53.014;6.600;2023-01-04T05:30:12;4.20;;;3.90;;
59770;SDS011;45649;53.014;6.600;2023-01-04T05:32:57;4.27;;;3.97;;
59770;SDS011;45649;53.014;6.600;2023-01-04T05:35:23;3.97;;;3.67;;
59770;SDS011;45649;53.014;6.600;2023-01-04T05:37:52;4.10;;;3.90;;
59770;SDS011;45649;53.014;6.600;2023-01-04T05:40:18;4.33;;;4.03;;
59770;SDS011;45649;53.014;6.600;2023-01-04T05:42:44;4.40;;;4.20;;
59770;SDS011;45649;53.014;6.600;2023-01-04T05:45:10;3.90;;;3.63;;
59770;SDS011;45649;53.014;6.600;2023-01-04T05:47:36;4.37;;;4.10;;
59770;SDS011;45649;53.014;6.600;2023-01-04T05:50:03;5.03;;;3.70;;
59770;SDS011;45649;53.014;6.600;2023-01-04T05:52:29;4.40;;;4.10;;
59770;SDS011;45649;53.014;6.600;2023-01-04T05:54:55;4.57;;;4.27;;
59770;SDS011;45649;53.014;6.600;2023-01-04T05:57:22;4.73;;;4.30;;
59770;SDS011;45649;53.014;6.600;2023-01-04T05:59:48;4.97;;;4.57;;
59770;SDS011;45649;53.014;6.600;2023-01-04T06:02:16;4.37;;;4.07;;
59770;SDS011;45649;53.014;6.600;2023-01-04T06:04:42;4.77;;;4.40;;
59770;SDS011;45649;53.014;6.600;2023-01-04T06:07:08;4.87;;;4.50;;
59770;SDS011;45649;53.014;6.600;2023-01-04T06:09:34;4.80;;;4.40;;
59770;SDS011;45649;53.014;6.600;2023-01-04T06:12:00;4.33;;;4.03;;
59770;SDS011;45649;53.014;6.600;2023-01-04T06:14:27;4.40;;;4.00;;
59770;SDS011;45649;53.014;6.600;2023-01-04T06:16:53;4.43;;;4.03;;
59770;SDS011;45649;53.014;6.600;2023-01-04T06:19:19;4.27;;;3.93;;
59770;SDS011;45649;53.014;6.600;2023-01-04T06:21:45;5.77;;;4.40;;
59770;SDS011;45649;53.014;6.600;2023-01-04T06:24:11;3.93;;;3.63;;
59770;SDS011;45649;53.014;6.600;2023-01-04T06:26:38;4.30;;;4.00;;
59770;SDS011;45649;53.014;6.600;2023-01-04T06:29:04;4.77;;;3.83;;
59770;SDS011;45649;53.014;6.600;2023-01-04T06:31:30;3.93;;;3.63;;
59770;SDS011;45649;53.014;6.600;2023-01-04T06:33:57;3.87;;;3.60;;
59770;SDS011;45649;53.014;6.600;2023-01-04T06:36:24;4.23;;;3.43;;
59770;SDS011;45649;53.014;6.600;2023-01-04T06:38:50;5.13;;;3.30;;
59770;SDS011;45649;53.014;6.600;2023-01-04T06:41:16;3.87;;;3.40;;
59770;SDS011;45649;53.014;6.600;2023-01-04T06:43:42;3.50;;;3.20;;
59770;SDS011;45649;53.014;6.600;2023-01-04T06:46:08;3.17;;;2.97;;
59770;SDS011;45649;53.014;6.600;2023-01-04T06:48:35;3.73;;;3.23;;
59770;SDS011;45649;53.014;6.600;2023-01-04T06:51:01;3.03;;;2.80;;
59770;SDS011;45649;53.014;6.600;2023-01-04T06:53:27;3.13;;;2.70;;
59770;SDS011;45649;53.014;6.600;2023-01-04T06:55:54;2.80;;;2.60;;
59770;SDS011;45649;53.014;6.600;2023-01-04T06:58:20;3.60;;;2.47;;
59770;SDS011;45649;53.014;6.600;2023-01-04T07:00:46;2.30;;;2.20;;
59770;SDS011;45649;53.014;6.600;2023-01-04T07:03:12;2.47;;;2.37;;
59770;SDS011;45649;53.014;6.600;2023-01-04T07:05:38;2.20;;;2.10;;
59770;SDS011;45649;53.014;6.600;2023-01-04T07:08:04;2.30;;;2.20;;
59770;SDS011;45649;53.014;6.600;2023-01-04T07:10:30;2.30;;;2.20;;
59770;SDS011;45649;53.014;6.600;2023-01-04T07:12:56;2.40;;;2.30;;
59770;SDS011;45649;53.014;6.600;2023-01-04T07:15:23;3.60;;;2.20;;
59770;SDS011;45649;53.014;6.600;2023-01-04T07:17:49;2.10;;;2.00;;
59770;SDS011;45649;53.014;6.600;2023-01-04T07:20:16;2.37;;;2.00;;
59770;SDS011;45649;53.014;6.600;2023-01-04T07:22:42;3.00;;;2.47;;
59770;SDS011;45649;53.014;6.600;2023-01-04T07:25:08;2.50;;;2.30;;
59770;SDS011;45649;53.014;6.600;2023-01-04T07:27:34;2.00;;;1.90;;
59770;SDS011;45649;53.014;6.600;2023-01-04T07:30:00;2.10;;;1.93;;
59770;SDS011;45649;53.014;6.600;2023-01-04T07:32:26;2.10;;;2.00;;
59770;SDS011;45649;53.014;6.600;2023-01-04T07:34:53;2.30;;;2.20;;
59770;SDS011;45649;53.014;6.600;2023-01-04T07:37:19;2.03;;;1.93;;
59770;SDS011;45649;53.014;6.600;2023-01-04T07:39:45;2.47;;;2.30;;
59770;SDS011;45649;53.014;6.600;2023-01-04T07:42:12;2.40;;;2.30;;
59770;SDS011;45649;53.014;6.600;2023-01-04T07:44:38;2.40;;;2.30;;
59770;SDS011;45649;53.014;6.600;2023-01-04T07:47:05;2.17;;;2.07;;
59770;SDS011;45649;53.014;6.600;2023-01-04T07:49:31;2.30;;;2.03;;
59770;SDS011;45649;53.014;6.600;2023-01-04T07:51:57;3.47;;;2.40;;
59770;SDS011;45649;53.014;6.600;2023-01-04T07:54:23;2.43;;;2.30;;
59770;SDS011;45649;53.014;6.600;2023-01-04T07:56:49;2.73;;;2.53;;
59770;SDS011;45649;53.014;6.600;2023-01-04T07:59:16;2.60;;;2.40;;
59770;SDS011;45649;53.014;6.600;2023-01-04T08:01:42;2.40;;;2.20;;
59770;SDS011;45649;53.014;6.600;2023-01-04T08:04:09;2.23;;;2.13;;
59770;SDS011;45649;53.014;6.600;2023-01-04T08:06:36;2.80;;;2.10;;
59770;SDS011;45649;53.014;6.600;2023-01-04T08:09:03;2.40;;;2.20;;
59770;SDS011;45649;53.014;6.600;2023-01-04T08:11:29;2.37;;;2.20;;
59770;SDS011;45649;53.014;6.600;2023-01-04T08:13:55;2.23;;;2.10;;
59770;SDS011;45649;53.014;6.600;2023-01-04T08:16:35;2.43;;;2.30;;
59770;SDS011;45649;53.014;6.600;2023-01-04T08:19:06;2.53;;;2.10;;
59770;SDS011;45649;53.014;6.600;2023-01-04T08:21:33;2.50;;;2.30;;
59770;SDS011;45649;53.014;6.600;2023-01-04T08:23:59;2.80;;;2.40;;
59770;SDS011;45649;53.014;6.600;2023-01-04T08:26:26;2.97;;;2.67;;
59770;SDS011;45649;53.014;6.600;2023-01-04T08:28:53;2.93;;;2.73;;
59770;SDS011;45649;53.014;6.600;2023-01-04T08:31:22;3.30;;;3.10;;
59770;SDS011;45649;53.014;6.600;2023-01-04T08:33:49;2.90;;;2.70;;
59770;SDS011;45649;53.014;6.600;2023-01-04T08:36:19;3.17;;;2.97;;
59770;SDS011;45649;53.014;6.600;2023-01-04T08:38:46;3.50;;;3.20;;
59770;SDS011;45649;53.014;6.600;2023-01-04T08:41:13;4.90;;;4.50;;
59770;SDS011;45649;53.014;6.600;2023-01-04T08:43:39;6.13;;;5.40;;
59770;SDS011;45649;53.014;6.600;2023-01-04T08:46:05;3.77;;;3.57;;
59770;SDS011;45649;53.014;6.600;2023-01-04T08:48:32;3.43;;;3.20;;
59770;SDS011;45649;53.014;6.600;2023-01-04T08:50:58;3.40;;;3.10;;
59770;SDS011;45649;53.014;6.600;2023-01-04T08:53:25;3.40;;;3.10;;
59770;SDS011;45649;53.014;6.600;2023-01-04T08:55:51;3.33;;;3.00;;
59770;SDS011;45649;53.014;6.600;2023-01-04T08:58:17;2.70;;;2.50;;
59770;SDS011;45649;53.014;6.600;2023-01-04T09:00:44;2.87;;;2.20;;
59770;SDS011;45649;53.014;6.600;2023-01-04T09:03:10;2.20;;;2.10;;
59770;SDS011;45649;53.014;6.600;2023-01-04T09:05:36;2.37;;;2.17;;
59770;SDS011;45649;53.014;6.600;2023-01-04T09:08:03;2.20;;;2.10;;
59770;SDS011;45649;53.014;6.600;2023-01-04T09:10:30;1.97;;;1.87;;
59770;SDS011;45649;53.014;6.600;2023-01-04T09:12:56;2.30;;;2.10;;
59770;SDS011;45649;53.014;6.600;2023-01-04T09:15:22;2.67;;;1.80;;
59770;SDS011;45649;53.014;6.600;2023-01-04T09:17:49;1.80;;;1.70;;
59770;SDS011;45649;53.014;6.600;2023-01-04T09:20:15;1.67;;;1.60;;
59770;SDS011;45649;53.014;6.600;2023-01-04T09:22:41;2.00;;;1.90;;
59770;SDS011;45649;53.014;6.600;2023-01-04T09:25:07;1.77;;;1.50;;
59770;SDS011;45649;53.014;6.600;2023-01-04T09:27:34;1.50;;;1.40;;
59770;SDS011;45649;53.014;6.600;2023-01-04T09:30:00;1.33;;;1.33;;
59770;SDS011;45649;53.014;6.600;2023-01-04T09:32:26;1.37;;;1.27;;
59770;SDS011;45649;53.014;6.600;2023-01-04T09:34:53;1.50;;;1.40;;
59770;SDS011;45649;53.014;6.600;2023-01-04T09:37:20;1.63;;;1.30;;
59770;SDS011;45649;53.014;6.600;2023-01-04T09:39:46;1.30;;;1.30;;
59770;SDS011;45649;53.014;6.600;2023-01-04T09:42:16;1.50;;;1.40;;
59770;SDS011;45649;53.014;6.600;2023-01-04T09:44:50;1.50;;;1.27;;
59770;SDS011;45649;53.014;6.600;2023-01-04T09:47:26;1.60;;;1.60;;
59770;SDS011;45649;53.014;6.600;2023-01-04T09:50:03;1.70;;;1.60;;
59770;SDS011;45649;53.014;6.600;2023-01-04T09:55:06;2.17;;;2.00;;
59770;SDS011;45649;53.014;6.600;2023-01-04T09:57:39;2.13;;;2.03;;
59770;SDS011;45649;53.014;6.600;2023-01-04T10:00:13;2.20;;;2.00;;
59770;SDS011;45649;53.014;6.600;2023-01-04T10:05:14;4.13;;;2.47;;
59770;SDS011;45649;53.014;6.600;2023-01-04T10:07:40;3.67;;;2.27;;
59770;SDS011;45649;53.014;6.600;2023-01-04T10:10:11;4.73;;;2.60;;
59770;SDS011;45649;53.014;6.600;2023-01-04T10:12:47;6.10;;;3.00;;
59770;SDS011;45649;53.014;6.600;2023-01-04T10:15:34;6.13;;;2.87;;
59770;SDS011;45649;53.014;6.600;2023-01-04T10:20:55;10.57;;;3.00;;
59770;SDS011;45649;53.014;6.600;2023-01-04T10:26:00;7.07;;;2.90;;
59770;SDS011;45649;53.014;6.600;2023-01-04T10:28:37;10.70;;;3.33;;
59770;SDS011;45649;53.014;6.600;2023-01-04T10:31:17;11.17;;;3.50;;
59770;SDS011;45649;53.014;6.600;2023-01-04T10:33:49;11.73;;;3.37;;
59770;SDS011;45649;53.014;6.600;2023-01-04T10:36:19;14.17;;;3.53;;
59770;SDS011;45649;53.014;6.600;2023-01-04T10:38:46;15.80;;;3.73;;
59770;SDS011;45649;53.014;6.600;2023-01-04T10:41:18;18.03;;;4.03;;
59770;SDS011;45649;53.014;6.600;2023-01-04T10:43:58;16.23;;;4.20;;
59770;SDS011;45649;53.014;6.600;2023-01-04T10:46:28;15.17;;;3.97;;
59770;SDS011;45649;53.014;6.600;2023-01-04T10:51:51;17.30;;;4.40;;
59770;SDS011;45649;53.014;6.600;2023-01-04T10:54:38;24.37;;;4.70;;
59770;SDS011;45649;53.014;6.600;2023-01-04T10:57:24;18.83;;;4.80;;
59770;SDS011;45649;53.014;6.600;2023-01-04T11:02:39;22.57;;;4.60;;
59770;SDS011;45649;53.014;6.600;2023-01-04T11:10:14;18.97;;;4.40;;
59770;SDS011;45649;53.014;6.600;2023-01-04T11:12:42;21.10;;;4.23;;
59770;SDS011;45649;53.014;6.600;2023-01-04T11:15:10;20.70;;;5.00;;
59770;SDS011;45649;53.014;6.600;2023-01-04T11:17:36;16.57;;;4.17;;
59770;SDS011;45649;53.014;6.600;2023-01-04T11:20:03;19.53;;;4.20;;
59770;SDS011;45649;53.014;6.600;2023-01-04T11:22:34;22.00;;;4.57;;
59770;SDS011;45649;53.014;6.600;2023-01-04T11:25:02;25.03;;;5.00;;
59770;SDS011;45649;53.014;6.600;2023-01-04T11:27:30;22.00;;;4.80;;
59770;SDS011;45649;53.014;6.600;2023-01-04T11:30:01;22.10;;;4.70;;
59770;SDS011;45649;53.014;6.600;2023-01-04T11:34:57;21.87;;;4.20;;
59770;SDS011;45649;53.014;6.600;2023-01-04T11:37:34;21.07;;;4.57;;
59770;SDS011;45649;53.014;6.600;2023-01-04T11:42:36;23.50;;;4.27;;
59770;SDS011;45649;53.014;6.600;2023-01-04T11:45:03;23.30;;;4.90;;
59770;SDS011;45649;53.014;6.600;2023-01-04T11:47:29;18.10;;;4.37;;
59770;SDS011;45649;53.014;6.600;2023-01-04T11:49:56;21.20;;;4.83;;
59770;SDS011;45649;53.014;6.600;2023-01-04T11:52:30;18.77;;;4.40;;
59770;SDS011;45649;53.014;6.600;2023-01-04T11:55:03;21.40;;;4.87;;
59770;SDS011;45649;53.014;6.600;2023-01-04T11:57:40;18.47;;;4.27;;
59770;SDS011;45649;53.014;6.600;2023-01-04T12:00:13;19.80;;;4.20;;
59770;SDS011;45649;53.014;6.600;2023-01-04T12:02:40;21.67;;;4.20;;
59770;SDS011;45649;53.014;6.600;2023-01-04T12:05:24;20.33;;;4.03;;
59770;SDS011;45649;53.014;6.600;2023-01-04T12:07:51;19.73;;;3.73;;
59770;SDS011;45649;53.014;6.600;2023-01-04T12:10:19;21.70;;;4.13;;
59770;SDS011;45649;53.014;6.600;2023-01-04T12:12:46;21.20;;;5.23;;
59770;SDS011;45649;53.014;6.600;2023-01-04T12:15:16;17.00;;;3.50;;
59770;SDS011;45649;53.014;6.600;2023-01-04T12:17:48;20.90;;;3.77;;
59770;SDS011;45649;53.014;6.600;2023-01-04T12:20:18;14.73;;;3.47;;
59770;SDS011;45649;53.014;6.600;2023-01-04T12:22:45;14.63;;;3.63;;
59770;SDS011;45649;53.014;6.600;2023-01-04T12:27:53;13.93;;;3.53;;
59770;SDS011;45649;53.014;6.600;2023-01-04T12:30:36;8.80;;;2.50;;
59770;SDS011;45649;53.014;6.600;2023-01-04T12:35:57;6.67;;;2.20;;
59770;SDS011;45649;53.014;6.600;2023-01-04T12:41:08;8.13;;;2.90;;
59770;SDS011;45649;53.014;6.600;2023-01-04T12:43:37;9.33;;;2.53;;
59770;SDS011;45649;53.014;6.600;2023-01-04T12:54:42;5.50;;;2.90;;
59770;SDS011;45649;53.014;6.600;2023-01-04T13:02:26;7.33;;;2.77;;
59770;SDS011;45649;53.014;6.600;2023-01-04T13:04:54;9.03;;;2.60;;
59770;SDS011;45649;53.014;6.600;2023-01-04T13:07:23;7.70;;;2.50;;
59770;SDS011;45649;53.014;6.600;2023-01-04T13:09:52;8.30;;;2.50;;
59770;SDS011;45649;53.014;6.600;2023-01-04T13:12:34;8.57;;;2.87;;
59770;SDS011;45649;53.014;6.600;2023-01-04T13:17:53;10.07;;;3.17;;
59770;SDS011;45649;53.014;6.600;2023-01-04T13:20:20;12.80;;;3.23;;
59770;SDS011;45649;53.014;6.600;2023-01-04T13:22:49;14.43;;;3.57;;
59770;SDS011;45649;53.014;6.600;2023-01-04T13:25:16;13.50;;;2.80;;
59770;SDS011;45649;53.014;6.600;2023-01-04T13:27:53;15.17;;;3.50;;
59770;SDS011;45649;53.014;6.600;2023-01-04T13:30:27;10.50;;;3.03;;
59770;SDS011;45649;53.014;6.600;2023-01-04T13:32:53;16.67;;;3.70;;
59770;SDS011;45649;53.014;6.600;2023-01-04T13:35:19;17.23;;;3.80;;
59770;SDS011;45649;53.014;6.600;2023-01-04T13:37:46;18.17;;;4.03;;
59770;SDS011;45649;53.014;6.600;2023-01-04T13:42:40;14.50;;;3.27;;
59770;SDS011;45649;53.014;6.600;2023-01-04T13:48:09;19.23;;;4.53;;
59770;SDS011;45649;53.014;6.600;2023-01-04T13:50:41;18.20;;;4.23;;
59770;SDS011;45649;53.014;6.600;2023-01-04T13:53:29;19.90;;;4.50;;
59770;SDS011;45649;53.014;6.600;2023-01-04T13:56:00;22.93;;;5.40;;
59770;SDS011;45649;53.014;6.600;2023-01-04T13:58:33;21.00;;;4.47;;
59770;SDS011;45649;53.014;6.600;2023-01-04T14:01:01;16.67;;;4.33;;
59770;SDS011;45649;53.014;6.600;2023-01-04T14:03:39;15.43;;;4.37;;
59770;SDS011;45649;53.014;6.600;2023-01-04T14:08:39;22.10;;;4.80;;
59770;SDS011;45649;53.014;6.600;2023-01-04T14:11:13;20.47;;;4.53;;
59770;SDS011;45649;53.014;6.600;2023-01-04T14:13:59;21.83;;;4.97;;
59770;SDS011;45649;53.014;6.600;2023-01-04T14:16:25;25.23;;;5.30;;
59770;SDS011;45649;53.014;6.600;2023-01-04T14:18:51;18.77;;;4.17;;
59770;SDS011;45649;53.014;6.600;2023-01-04T14:21:17;23.10;;;5.33;;
59770;SDS011;45649;53.014;6.600;2023-01-04T14:23:44;20.03;;;4.80;;
59770;SDS011;45649;53.014;6.600;2023-01-04T14:26:29;19.77;;;5.10;;
59770;SDS011;45649;53.014;6.600;2023-01-04T14:28:55;17.07;;;3.87;;
59770;SDS011;45649;53.014;6.600;2023-01-04T14:31:24;24.67;;;4.80;;
59770;SDS011;45649;53.014;6.600;2023-01-04T14:33:51;19.47;;;4.50;;
59770;SDS011;45649;53.014;6.600;2023-01-04T14:36:24;23.93;;;4.27;;
59770;SDS011;45649;53.014;6.600;2023-01-04T14:38:58;18.60;;;4.00;;
59770;SDS011;45649;53.014;6.600;2023-01-04T14:41:26;18.13;;;3.87;;
59770;SDS011;45649;53.014;6.600;2023-01-04T14:46:27;16.43;;;4.20;;
59770;SDS011;45649;53.014;6.600;2023-01-04T14:48:53;19.43;;;4.23;;
59770;SDS011;45649;53.014;6.600;2023-01-04T14:51:21;22.47;;;4.20;;
59770;SDS011;45649;53.014;6.600;2023-01-04T14:53:48;19.50;;;4.23;;
59770;SDS011;45649;53.014;6.600;2023-01-04T14:56:16;16.77;;;3.70;;
59770;SDS011;45649;53.014;6.600;2023-01-04T14:58:42;18.67;;;4.90;;
59770;SDS011;45649;53.014;6.600;2023-01-04T15:01:08;20.80;;;4.77;;
59770;SDS011;45649;53.014;6.600;2023-01-04T15:03:35;16.53;;;4.10;;
59770;SDS011;45649;53.014;6.600;2023-01-04T15:06:01;20.23;;;4.30;;
59770;SDS011;45649;53.014;6.600;2023-01-04T15:08:28;17.13;;;3.87;;
59770;SDS011;45649;53.014;6.600;2023-01-04T15:10:54;18.53;;;4.57;;
59770;SDS011;45649;53.014;6.600;2023-01-04T15:13:20;22.60;;;4.60;;
59770;SDS011;45649;53.014;6.600;2023-01-04T15:15:47;15.93;;;4.30;;
59770;SDS011;45649;53.014;6.600;2023-01-04T15:18:13;18.93;;;4.80;;
59770;SDS011;45649;53.014;6.600;2023-01-04T15:20:41;16.60;;;4.70;;
59770;SDS011;45649;53.014;6.600;2023-01-04T15:23:07;18.80;;;4.53;;
59770;SDS011;45649;53.014;6.600;2023-01-04T15:25:33;18.33;;;4.87;;
59770;SDS011;45649;53.014;6.600;2023-01-04T15:27:59;18.70;;;4.43;;
59770;SDS011;45649;53.014;6.600;2023-01-04T15:30:25;21.27;;;4.53;;
59770;SDS011;45649;53.014;6.600;2023-01-04T15:32:51;17.67;;;4.20;;
59770;SDS011;45649;53.014;6.600;2023-01-04T15:35:18;17.80;;;4.40;;
59770;SDS011;45649;53.014;6.600;2023-01-04T15:37:44;17.07;;;4.00;;
59770;SDS011;45649;53.014;6.600;2023-01-04T15:40:12;18.03;;;4.03;;
59770;SDS011;45649;53.014;6.600;2023-01-04T15:42:39;15.13;;;4.03;;
59770;SDS011;45649;53.014;6.600;2023-01-04T15:45:33;17.83;;;3.63;;
59770;SDS011;45649;53.014;6.600;2023-01-04T15:47:59;18.50;;;3.80;;
59770;SDS011;45649;53.014;6.600;2023-01-04T15:50:33;16.70;;;4.07;;
59770;SDS011;45649;53.014;6.600;2023-01-04T15:53:00;17.87;;;4.53;;
59770;SDS011;45649;53.014;6.600;2023-01-04T15:55:30;20.20;;;4.27;;
59770;SDS011;45649;53.014;6.600;2023-01-04T15:57:56;15.40;;;3.87;;
59770;SDS011;45649;53.014;6.600;2023-01-04T16:00:23;17.90;;;4.00;;
59770;SDS011;45649;53.014;6.600;2023-01-04T16:02:49;14.27;;;4.20;;
59770;SDS011;45649;53.014;6.600;2023-01-04T16:05:15;19.07;;;4.90;;
59770;SDS011;45649;53.014;6.600;2023-01-04T16:07:45;18.63;;;4.47;;
59770;SDS011;45649;53.014;6.600;2023-01-04T16:10:12;16.57;;;4.17;;
59770;SDS011;45649;53.014;6.600;2023-01-04T16:12:38;14.17;;;4.23;;
59770;SDS011;45649;53.014;6.600;2023-01-04T16:15:09;14.93;;;3.80;;
59770;SDS011;45649;53.014;6.600;2023-01-04T16:17:36;21.27;;;4.30;;
59770;SDS011;45649;53.014;6.600;2023-01-04T16:20:02;19.07;;;4.37;;
59770;SDS011;45649;53.014;6.600;2023-01-04T16:22:28;17.93;;;4.53;;
59770;SDS011;45649;53.014;6.600;2023-01-04T16:24:54;17.20;;;4.23;;
59770;SDS011;45649;53.014;6.600;2023-01-04T16:27:21;18.33;;;4.67;;
59770;SDS011;45649;53.014;6.600;2023-01-04T16:29:47;16.30;;;4.43;;
59770;SDS011;45649;53.014;6.600;2023-01-04T16:32:34;19.60;;;4.13;;
59770;SDS011;45649;53.014;6.600;2023-01-04T16:35:00;16.87;;;4.00;;
59770;SDS011;45649;53.014;6.600;2023-01-04T16:37:27;19.47;;;4.83;;